sensor_id;sensor_type;location;lat;lon;timestamp;pressure;altitude;pressure_sealevel;temperature;humidity
21980;BME280;11154;48.558;9.234;2023-04-01T00:01:45;96250.09;;;13.27;79.96
21980;BME280;11154;48.558;9.234;2023-04-01T00:03:46;96255.44;;;13.27;79.59
21980;BME280;11154;48.558;9.234;2023-04-01T00:05:48;96252.53;;;13.29;79.17
21980;BME280;11154;48.558;9.234;2023-04-01T00:07:50;96253.16;;;13.31;78.82
21980;BME280;11154;48.558;9.234;2023-04-01T00:09:52;96250.09;;;13.34;78.36
21980;BME280;11154;48.558;9.234;2023-04-01T00:11:53;96261.78;;;13.33;78.61
21980;BME280;11154;48.558;9.234;2023-04-01T00:13:55;96259.34;;;13.31;78.25
21980;BME280;11154;48.558;9.234;2023-04-01T00:15:58;96258.72;;;13.29;77.67
21980;BME280;11154;48.558;9.234;2023-04-01T00:18:01;96249.47;;;13.32;78.02
21980;BME280;11154;48.558;9.234;2023-04-01T00:20:03;96256.47;;;13.33;77.54
21980;BME280;11154;48.558;9.234;2023-04-01T00:22:05;96246.81;;;13.32;77.91
21980;BME280;11154;48.558;9.234;2023-04-01T00:24:07;96249.69;;;13.30;77.42
21980;BME280;11154;48.558;9.234;2023-04-01T00:26:08;96244.34;;;13.30;77.25
21980;BME280;11154;48.558;9.234;2023-04-01T00:28:10;96244.13;;;13.32;76.98
21980;BME280;11154;48.558;9.234;2023-04-01T00:30:12;96233.44;;;13.32;77.16
21980;BME280;11154;48.558;9.234;2023-04-01T00:32:15;96241.88;;;13.29;77.07
21980;BME280;11154;48.558;9.234;2023-04-01T00:34:17;96234.91;;;13.28;77.32
21980;BME280;11154;48.558;9.234;2023-04-01T00:36:21;96234.91;;;13.28;78.06
21980;BME280;11154;48.558;9.234;2023-04-01T00:38:23;96242.28;;;13.26;77.76
21980;BME280;11154;48.558;9.234;2023-04-01T00:40:27;96243.94;;;13.27;78.20
21980;BME280;11154;48.558;9.234;2023-04-01T00:42:29;96237.56;;;13.28;78.13
21980;BME280;11154;48.558;9.234;2023-04-01T00:44:33;96234.91;;;13.28;77.97
21980;BME280;11154;48.558;9.234;2023-04-01T00:46:35;96236.75;;;13.27;78.40
21980;BME280;11154;48.558;9.234;2023-04-01T00:48:42;96231.19;;;13.29;78.17
21980;BME280;11154;48.558;9.234;2023-04-01T00:50:48;96251.94;;;13.27;78.19
21980;BME280;11154;48.558;9.234;2023-04-01T00:52:52;96236.97;;;13.26;78.51
21980;BME280;11154;48.558;9.234;2023-04-01T00:54:56;96242.28;;;13.26;78.41
21980;BME280;11154;48.558;9.234;2023-04-01T00:57:04;96220.94;;;13.26;78.66
21980;BME280;11154;48.558;9.234;2023-04-01T00:59:10;96235.31;;;13.25;78.69
21980;BME280;11154;48.558;9.234;2023-04-01T01:01:13;96235.75;;;13.22;77.94
21980;BME280;11154;48.558;9.234;2023-04-01T01:03:15;96225.88;;;13.22;77.36
21980;BME280;11154;48.558;9.234;2023-04-01T01:05:23;96238.81;;;13.19;77.16
21980;BME280;11154;48.558;9.234;2023-04-01T01:07:31;96232.47;;;13.20;76.75
21980;BME280;11154;48.558;9.234;2023-04-01T01:09:45;96236.78;;;13.21;77.28
21980;BME280;11154;48.558;9.234;2023-04-01T01:11:54;96231.44;;;13.21;77.17
21980;BME280;11154;48.558;9.234;2023-04-01T01:14:01;96235.75;;;13.22;77.62
21980;BME280;11154;48.558;9.234;2023-04-01T01:16:09;96234.91;;;13.21;77.55
21980;BME280;11154;48.558;9.234;2023-04-01T01:18:19;96235.75;;;13.22;78.04
21980;BME280;11154;48.558;9.234;2023-04-01T01:20:50;96237.38;;;13.23;77.97
21980;BME280;11154;48.558;9.234;2023-04-01T01:25:40;96233.47;;;13.19;77.66
21980;BME280;11154;48.558;9.234;2023-04-01T01:27:49;96223.81;;;13.18;77.76
21980;BME280;11154;48.558;9.234;2023-04-01T01:30:14;96229.16;;;13.18;77.15
21980;BME280;11154;48.558;9.234;2023-04-01T01:32:32;96231.03;;;13.17;76.93
21980;BME280;11154;48.558;9.234;2023-04-01T01:34:44;96232.28;;;13.15;77.32
21980;BME280;11154;48.558;9.234;2023-04-01T01:36:55;96226.09;;;13.14;77.42
21980;BME280;11154;48.558;9.234;2023-04-01T01:38:58;96241.53;;;13.12;77.26
21980;BME280;11154;48.558;9.234;2023-04-01T01:41:01;96241.88;;;13.16;77.62
21980;BME280;11154;48.558;9.234;2023-04-01T01:43:08;96240.28;;;13.15;77.19
21980;BME280;11154;48.558;9.234;2023-04-01T01:45:12;96234.72;;;13.16;77.08
21980;BME280;11154;48.558;9.234;2023-04-01T01:47:19;96234.94;;;13.15;76.92
21980;BME280;11154;48.558;9.234;2023-04-01T01:49:22;96229.59;;;13.15;77.07
21980;BME280;11154;48.558;9.234;2023-04-01T01:51:26;96245.63;;;13.15;76.69
21980;BME280;11154;48.558;9.234;2023-04-01T01:53:32;96241.69;;;13.11;76.45
21980;BME280;11154;48.558;9.234;2023-04-01T01:55:35;96244.78;;;13.14;76.25
21980;BME280;11154;48.558;9.234;2023-04-01T01:57:37;96246.00;;;13.12;76.37
21980;BME280;11154;48.558;9.234;2023-04-01T01:59:42;96243.97;;;13.14;76.29
21980;BME280;11154;48.558;9.234;2023-04-01T02:01:48;96247.03;;;13.11;76.17
21980;BME280;11154;48.558;9.234;2023-04-01T02:03:52;96241.09;;;13.09;76.37
21980;BME280;11154;48.558;9.234;2023-04-01T02:05:56;96245.59;;;13.08;76.30
21980;BME280;11154;48.558;9.234;2023-04-01T02:08:04;96252.19;;;13.06;76.47
21980;BME280;11154;48.558;9.234;2023-04-01T02:10:09;96252.19;;;13.06;76.48
21980;BME280;11154;48.558;9.234;2023-04-01T02:12:14;96249.72;;;13.04;76.02
21980;BME280;11154;48.558;9.234;2023-04-01T02:14:18;96239.06;;;13.04;75.80
21980;BME280;11154;48.558;9.234;2023-04-01T02:16:25;96238.22;;;13.04;75.47
21980;BME280;11154;48.558;9.234;2023-04-01T02:18:28;96240.28;;;13.02;75.17
21980;BME280;11154;48.558;9.234;2023-04-01T02:20:31;96244.78;;;13.01;75.33
21980;BME280;11154;48.558;9.234;2023-04-01T02:22:35;96251.56;;;13.04;75.09
21980;BME280;11154;48.558;9.234;2023-04-01T02:24:42;96250.97;;;13.02;74.95
21980;BME280;11154;48.558;9.234;2023-04-01T02:26:47;96238.66;;;13.01;75.30
21980;BME280;11154;48.558;9.234;2023-04-01T02:28:50;96253.00;;;13.00;75.23
21980;BME280;11154;48.558;9.234;2023-04-01T02:30:54;96248.47;;;13.00;75.88
21980;BME280;11154;48.558;9.234;2023-04-01T02:32:58;96253.00;;;13.00;76.04
21980;BME280;11154;48.558;9.234;2023-04-01T02:35:00;96259.38;;;12.99;76.51
21980;BME280;11154;48.558;9.234;2023-04-01T02:37:06;96250.16;;;12.95;76.41
21980;BME280;11154;48.558;9.234;2023-04-01T02:39:08;96251.97;;;12.95;76.65
21980;BME280;11154;48.558;9.234;2023-04-01T02:41:09;96251.38;;;12.93;76.66
21980;BME280;11154;48.558;9.234;2023-04-01T02:43:12;96262.88;;;12.93;76.24
21980;BME280;11154;48.558;9.234;2023-04-01T02:45:14;96257.97;;;12.90;76.76
21980;BME280;11154;48.558;9.234;2023-04-01T02:47:16;96257.75;;;12.92;76.54
21980;BME280;11154;48.558;9.234;2023-04-01T02:49:17;96259.56;;;12.91;76.91
21980;BME280;11154;48.558;9.234;2023-04-01T02:51:19;96263.31;;;12.90;76.96
21980;BME280;11154;48.558;9.234;2023-04-01T02:53:21;96262.84;;;12.87;76.93
21980;BME280;11154;48.558;9.234;2023-04-01T02:55:22;96244.00;;;12.88;76.93
21980;BME280;11154;48.558;9.234;2023-04-01T02:57:24;96243.16;;;12.88;76.99
21980;BME280;11154;48.558;9.234;2023-04-01T02:59:28;96249.69;;;12.85;77.19
21980;BME280;11154;48.558;9.234;2023-04-01T03:01:29;96254.44;;;12.83;76.83
21980;BME280;11154;48.558;9.234;2023-04-01T03:03:31;96256.69;;;12.80;76.73
21980;BME280;11154;48.558;9.234;2023-04-01T03:05:32;96253.19;;;12.79;76.86
21980;BME280;11154;48.558;9.234;2023-04-01T03:07:34;96245.63;;;12.76;76.45
21980;BME280;11154;48.558;9.234;2023-04-01T03:09:36;96247.66;;;12.74;76.54
21980;BME280;11154;48.558;9.234;2023-04-01T03:11:37;96242.53;;;12.73;76.21
21980;BME280;11154;48.558;9.234;2023-04-01T03:13:41;96252.81;;;12.69;75.65
21980;BME280;11154;48.558;9.234;2023-04-01T03:15:44;96246.03;;;12.67;75.69
21980;BME280;11154;48.558;9.234;2023-04-01T03:17:45;96252.19;;;12.67;75.67
21980;BME280;11154;48.558;9.234;2023-04-01T03:19:47;96247.06;;;12.66;75.52
21980;BME280;11154;48.558;9.234;2023-04-01T03:21:49;96256.28;;;12.63;75.33
21980;BME280;11154;48.558;9.234;2023-04-01T03:23:51;96261.00;;;12.61;75.73
21980;BME280;11154;48.558;9.234;2023-04-01T03:25:53;96265.31;;;12.62;75.45
21980;BME280;11154;48.558;9.234;2023-04-01T03:27:54;96261.22;;;12.60;75.49
21980;BME280;11154;48.558;9.234;2023-04-01T03:29:56;96263.03;;;12.59;76.04
21980;BME280;11154;48.558;9.234;2023-04-01T03:31:59;96266.34;;;12.55;76.15
21980;BME280;11154;48.558;9.234;2023-04-01T03:34:00;96266.53;;;12.53;75.93
21980;BME280;11154;48.558;9.234;2023-04-01T03:36:02;96261.19;;;12.53;76.18
21980;BME280;11154;48.558;9.234;2023-04-01T03:38:06;96261.63;;;12.50;76.05
21980;BME280;11154;48.558;9.234;2023-04-01T03:40:09;96262.41;;;12.51;75.91
21980;BME280;11154;48.558;9.234;2023-04-01T03:42:11;96250.53;;;12.47;75.86
21980;BME280;11154;48.558;9.234;2023-04-01T03:44:12;96258.75;;;12.45;75.57
21980;BME280;11154;48.558;9.234;2023-04-01T03:46:17;96254.59;;;12.43;75.56
21980;BME280;11154;48.558;9.234;2023-04-01T03:48:20;96251.94;;;12.43;75.61
21980;BME280;11154;48.558;9.234;2023-04-01T03:50:22;96248.06;;;12.39;75.36
21980;BME280;11154;48.558;9.234;2023-04-01T03:52:23;96254.22;;;12.39;75.01
21980;BME280;11154;48.558;9.234;2023-04-01T03:54:25;96258.50;;;12.40;74.95
21980;BME280;11154;48.558;9.234;2023-04-01T03:56:27;96262.22;;;12.39;75.27
21980;BME280;11154;48.558;9.234;2023-04-01T03:58:29;96256.25;;;12.37;75.13
21980;BME280;11154;48.558;9.234;2023-04-01T04:00:30;96254.63;;;12.36;74.87
21980;BME280;11154;48.558;9.234;2023-04-01T04:02:32;96249.28;;;12.36;74.38
21980;BME280;11154;48.558;9.234;2023-04-01T04:04:35;96249.28;;;12.36;74.48
21980;BME280;11154;48.558;9.234;2023-04-01T04:06:37;96246.63;;;12.36;74.11
21980;BME280;11154;48.558;9.234;2023-04-01T04:08:39;96238.63;;;12.36;74.20
21980;BME280;11154;48.558;9.234;2023-04-01T04:10:40;96236.97;;;12.35;74.11
21980;BME280;11154;48.558;9.234;2023-04-01T04:12:43;96222.59;;;12.30;74.39
21980;BME280;11154;48.558;9.234;2023-04-01T04:14:44;96233.47;;;12.28;74.58
21980;BME280;11154;48.558;9.234;2023-04-01T04:16:46;96232.88;;;12.26;74.73
21980;BME280;11154;48.558;9.234;2023-04-01T04:18:48;96227.72;;;12.25;74.23
21980;BME280;11154;48.558;9.234;2023-04-01T04:20:52;96227.13;;;12.23;74.51
21980;BME280;11154;48.558;9.234;2023-04-01T04:22:54;96226.72;;;12.20;74.95
21980;BME280;11154;48.558;9.234;2023-04-01T04:24:55;96229.16;;;12.15;74.04
21980;BME280;11154;48.558;9.234;2023-04-01T04:26:57;96216.63;;;12.09;75.03
21980;BME280;11154;48.558;9.234;2023-04-01T04:28:59;96212.53;;;12.06;74.65
21980;BME280;11154;48.558;9.234;2023-04-01T04:31:02;96210.28;;;12.03;73.97
21980;BME280;11154;48.558;9.234;2023-04-01T04:33:05;96215.41;;;12.05;74.93
21980;BME280;11154;48.558;9.234;2023-04-01T04:35:07;96214.41;;;12.06;75.15
21980;BME280;11154;48.558;9.234;2023-04-01T04:37:10;96221.97;;;12.02;73.88
21980;BME280;11154;48.558;9.234;2023-04-01T04:39:12;96217.66;;;12.01;74.03
21980;BME280;11154;48.558;9.234;2023-04-01T04:41:14;96227.72;;;12.06;74.94
21980;BME280;11154;48.558;9.234;2023-04-01T04:43:18;96226.69;;;12.07;74.39
21980;BME280;11154;48.558;9.234;2023-04-01T04:45:20;96222.59;;;12.11;75.29
21980;BME280;11154;48.558;9.234;2023-04-01T04:47:21;96226.47;;;12.15;75.69
21980;BME280;11154;48.558;9.234;2023-04-01T04:49:23;96229.16;;;12.15;75.76
21980;BME280;11154;48.558;9.234;2023-04-01T04:51:25;96229.38;;;12.20;76.28
21980;BME280;11154;48.558;9.234;2023-04-01T04:53:28;96219.34;;;12.28;78.23
21980;BME280;11154;48.558;9.234;2023-04-01T04:55:30;96227.16;;;12.36;79.06
21980;BME280;11154;48.558;9.234;2023-04-01T04:57:32;96236.16;;;12.35;76.86
21980;BME280;11154;48.558;9.234;2023-04-01T04:59:33;96234.53;;;12.34;75.82
21980;BME280;11154;48.558;9.234;2023-04-01T05:01:35;96232.47;;;12.29;74.62
21980;BME280;11154;48.558;9.234;2023-04-01T05:03:37;96233.09;;;12.31;76.12
21980;BME280;11154;48.558;9.234;2023-04-01T05:05:39;96233.28;;;12.30;75.32
21980;BME280;11154;48.558;9.234;2023-04-01T05:07:41;96234.53;;;12.34;75.44
21980;BME280;11154;48.558;9.234;2023-04-01T05:09:44;96238.00;;;12.34;74.70
21980;BME280;11154;48.558;9.234;2023-04-01T05:11:47;96230.63;;;12.36;75.42
21980;BME280;11154;48.558;9.234;2023-04-01T05:13:48;96228.19;;;12.35;74.70
21980;BME280;11154;48.558;9.234;2023-04-01T05:15:50;96232.28;;;12.37;75.00
21980;BME280;11154;48.558;9.234;2023-04-01T05:17:52;96228.59;;;12.38;75.68
21980;BME280;11154;48.558;9.234;2023-04-01T05:19:54;96220.59;;;12.38;75.46
21980;BME280;11154;48.558;9.234;2023-04-01T05:21:55;96221.19;;;12.40;74.88
21980;BME280;11154;48.558;9.234;2023-04-01T05:23:57;96225.94;;;12.38;73.78
21980;BME280;11154;48.558;9.234;2023-04-01T05:26:03;96229.19;;;12.40;74.83
21980;BME280;11154;48.558;9.234;2023-04-01T05:28:04;96214.84;;;12.41;75.95
21980;BME280;11154;48.558;9.234;2023-04-01T05:30:07;96214.22;;;12.46;76.53
21980;BME280;11154;48.558;9.234;2023-04-01T05:32:09;96214.66;;;12.49;76.96
21980;BME280;11154;48.558;9.234;2023-04-01T05:34:10;96214.03;;;12.54;76.51
21980;BME280;11154;48.558;9.234;2023-04-01T05:36:13;96210.13;;;12.56;76.71
21980;BME280;11154;48.558;9.234;2023-04-01T05:38:15;96207.47;;;12.56;75.81
21980;BME280;11154;48.558;9.234;2023-04-01T05:40:17;96194.94;;;12.57;75.35
21980;BME280;11154;48.558;9.234;2023-04-01T05:42:20;96208.50;;;12.55;74.66
21980;BME280;11154;48.558;9.234;2023-04-01T05:44:22;96207.03;;;12.59;74.28
21980;BME280;11154;48.558;9.234;2023-04-01T05:46:23;96194.75;;;12.58;74.25
21980;BME280;11154;48.558;9.234;2023-04-01T05:48:25;96205.63;;;12.63;74.45
21980;BME280;11154;48.558;9.234;2023-04-01T05:50:27;96200.88;;;12.65;74.02
21980;BME280;11154;48.558;9.234;2023-04-01T05:52:28;96196.38;;;12.66;73.70
21980;BME280;11154;48.558;9.234;2023-04-01T05:54:30;96199.69;;;12.68;72.98
21980;BME280;11154;48.558;9.234;2023-04-01T05:56:31;96193.09;;;12.70;72.64
21980;BME280;11154;48.558;9.234;2023-04-01T05:58:34;96204.59;;;12.71;72.85
21980;BME280;11154;48.558;9.234;2023-04-01T06:00:36;96194.75;;;12.71;72.40
21980;BME280;11154;48.558;9.234;2023-04-01T06:02:38;96202.53;;;12.73;72.60
21980;BME280;11154;48.558;9.234;2023-04-01T06:04:42;96199.44;;;12.76;72.77
21980;BME280;11154;48.558;9.234;2023-04-01T06:06:43;96190.19;;;12.78;72.50
21980;BME280;11154;48.558;9.234;2023-04-01T06:08:45;96193.91;;;12.84;72.52
21980;BME280;11154;48.558;9.234;2023-04-01T06:10:55;96183.66;;;12.87;72.95
21980;BME280;11154;48.558;9.234;2023-04-01T06:13:03;96190.81;;;12.87;72.50
21980;BME280;11154;48.558;9.234;2023-04-01T06:15:20;96181.63;;;12.89;72.41
21980;BME280;11154;48.558;9.234;2023-04-01T06:17:28;96174.22;;;12.91;72.91
21980;BME280;11154;48.558;9.234;2023-04-01T06:19:38;96181.19;;;12.98;73.09
21980;BME280;11154;48.558;9.234;2023-04-01T06:21:55;96172.56;;;13.03;73.50
21980;BME280;11154;48.558;9.234;2023-04-01T06:24:13;96169.06;;;13.02;73.82
21980;BME280;11154;48.558;9.234;2023-04-01T06:26:24;96164.75;;;13.01;74.02
21980;BME280;11154;48.558;9.234;2023-04-01T06:28:49;96159.41;;;13.01;73.83
21980;BME280;11154;48.558;9.234;2023-04-01T06:31:03;96156.16;;;12.99;73.12
21980;BME280;11154;48.558;9.234;2023-04-01T06:35:45;96160.25;;;13.02;73.10
21980;BME280;11154;48.558;9.234;2023-04-01T06:38:15;96159.81;;;13.05;73.07
21980;BME280;11154;48.558;9.234;2023-04-01T06:40:34;96163.09;;;13.07;72.67
21980;BME280;11154;48.558;9.234;2023-04-01T06:43:06;96171.72;;;13.09;72.66
21980;BME280;11154;48.558;9.234;2023-04-01T06:45:15;96171.91;;;13.07;72.79
21980;BME280;11154;48.558;9.234;2023-04-01T06:47:32;96166.16;;;13.10;72.92
21980;BME280;11154;48.558;9.234;2023-04-01T06:49:46;96164.94;;;13.13;72.18
21980;BME280;11154;48.558;9.234;2023-04-01T06:51:55;96157.31;;;13.16;71.72
21980;BME280;11154;48.558;9.234;2023-04-01T06:54:03;96167.16;;;13.16;71.64
21980;BME280;11154;48.558;9.234;2023-04-01T06:56:08;96151.75;;;13.18;71.39
21980;BME280;11154;48.558;9.234;2023-04-01T06:58:15;96157.91;;;13.25;70.80
21980;BME280;11154;48.558;9.234;2023-04-01T07:00:26;96160.56;;;13.25;71.29
21980;BME280;11154;48.558;9.234;2023-04-01T07:02:36;96169.38;;;13.25;71.14
21980;BME280;11154;48.558;9.234;2023-04-01T07:04:43;96161.78;;;13.29;70.82
21980;BME280;11154;48.558;9.234;2023-04-01T07:06:48;96162.63;;;13.29;70.68
21980;BME280;11154;48.558;9.234;2023-04-01T07:08:52;96160.97;;;13.35;70.55
21980;BME280;11154;48.558;9.234;2023-04-01T07:10:58;96162.38;;;13.37;70.65
21980;BME280;11154;48.558;9.234;2023-04-01T07:13:05;96158.66;;;13.38;70.47
21980;BME280;11154;48.558;9.234;2023-04-01T07:15:15;96163.81;;;13.40;70.70
21980;BME280;11154;48.558;9.234;2023-04-01T07:17:20;96171.19;;;13.38;70.95
21980;BME280;11154;48.558;9.234;2023-04-01T07:19:29;96159.06;;;13.42;70.98
21980;BME280;11154;48.558;9.234;2023-04-01T07:21:36;96165.00;;;13.44;71.35
21980;BME280;11154;48.558;9.234;2023-04-01T07:23:44;96160.69;;;13.43;70.81
21980;BME280;11154;48.558;9.234;2023-04-01T07:25:51;96172.81;;;13.45;70.78
21980;BME280;11154;48.558;9.234;2023-04-01T07:27:57;96169.09;;;13.46;70.94
21980;BME280;11154;48.558;9.234;2023-04-01T07:30:03;96167.06;;;13.48;70.56
21980;BME280;11154;48.558;9.234;2023-04-01T07:32:18;96173.81;;;13.51;71.05
21980;BME280;11154;48.558;9.234;2023-04-01T07:34:26;96177.09;;;13.53;71.52
21980;BME280;11154;48.558;9.234;2023-04-01T07:36:33;96177.91;;;13.53;71.28
21980;BME280;11154;48.558;9.234;2023-04-01T07:38:48;96177.69;;;13.55;72.01
21980;BME280;11154;48.558;9.234;2023-04-01T07:41:01;96182.00;;;13.56;71.37
21980;BME280;11154;48.558;9.234;2023-04-01T07:43:27;96180.38;;;13.55;71.87
21980;BME280;11154;48.558;9.234;2023-04-01T07:45:36;96176.66;;;13.56;72.06
21980;BME280;11154;48.558;9.234;2023-04-01T07:47:54;96178.31;;;13.57;71.80
21980;BME280;11154;48.558;9.234;2023-04-01T07:50:12;96182.63;;;13.58;71.53
21980;BME280;11154;48.558;9.234;2023-04-01T07:52:19;96170.31;;;13.57;70.86
21980;BME280;11154;48.558;9.234;2023-04-01T07:54:31;96180.75;;;13.58;72.06
21980;BME280;11154;48.558;9.234;2023-04-01T07:56:39;96174.78;;;13.63;70.78
21980;BME280;11154;48.558;9.234;2023-04-01T07:58:54;96180.13;;;13.63;70.58
21980;BME280;11154;48.558;9.234;2023-04-01T08:01:02;96182.81;;;13.63;70.72
21980;BME280;11154;48.558;9.234;2023-04-01T08:03:19;96180.97;;;13.63;71.62
21980;BME280;11154;48.558;9.234;2023-04-01T08:05:26;96188.75;;;13.65;70.87
21980;BME280;11154;48.558;9.234;2023-04-01T08:07:34;96182.97;;;13.68;71.10
21980;BME280;11154;48.558;9.234;2023-04-01T08:09:41;96182.38;;;13.66;71.18
21980;BME280;11154;48.558;9.234;2023-04-01T08:11:55;96182.16;;;13.67;70.97
21980;BME280;11154;48.558;9.234;2023-04-01T08:14:08;96184.22;;;13.65;70.60
21980;BME280;11154;48.558;9.234;2023-04-01T08:16:17;96203.31;;;13.68;70.33
21980;BME280;11154;48.558;9.234;2023-04-01T08:18:29;96197.16;;;13.68;69.63
21980;BME280;11154;48.558;9.234;2023-04-01T08:20:38;96192.41;;;13.70;69.87
21980;BME280;11154;48.558;9.234;2023-04-01T08:22:45;96203.09;;;13.70;69.65
21980;BME280;11154;48.558;9.234;2023-04-01T08:24:48;96212.56;;;13.72;70.24
21980;BME280;11154;48.558;9.234;2023-04-01T08:26:53;96207.09;;;13.92;69.37
21980;BME280;11154;48.558;9.234;2023-04-01T08:28:59;96211.25;;;13.88;69.98
21980;BME280;11154;48.558;9.234;2023-04-01T08:31:04;96220.94;;;13.82;70.34
21980;BME280;11154;48.558;9.234;2023-04-01T08:33:12;96212.75;;;13.77;71.46
21980;BME280;11154;48.558;9.234;2023-04-01T08:35:21;96213.53;;;13.78;72.50
21980;BME280;11154;48.558;9.234;2023-04-01T08:37:32;96217.69;;;13.74;71.95
21980;BME280;11154;48.558;9.234;2023-04-01T08:39:38;96196.53;;;13.72;72.19
21980;BME280;11154;48.558;9.234;2023-04-01T08:42:02;96210.91;;;13.71;72.19
21980;BME280;11154;48.558;9.234;2023-04-01T08:46:51;96212.13;;;13.75;73.39
21980;BME280;11154;48.558;9.234;2023-04-01T08:49:05;96219.97;;;13.70;72.85
21980;BME280;11154;48.558;9.234;2023-04-01T08:51:40;96217.47;;;13.75;73.12
21980;BME280;11154;48.558;9.234;2023-04-01T08:54:00;96215.03;;;13.68;73.08
21980;BME280;11154;48.558;9.234;2023-04-01T08:56:12;96201.28;;;13.64;72.04
21980;BME280;11154;48.558;9.234;2023-04-01T08:58:35;96222.47;;;13.66;72.27
21980;BME280;11154;48.558;9.234;2023-04-01T09:00:50;96210.34;;;13.63;73.00
21980;BME280;11154;48.558;9.234;2023-04-01T09:05:47;96211.16;;;13.57;72.88
21980;BME280;11154;48.558;9.234;2023-04-01T09:08:08;96220.81;;;13.58;73.26
21980;BME280;11154;48.558;9.234;2023-04-01T09:10:32;96229.28;;;13.55;73.72
21980;BME280;11154;48.558;9.234;2023-04-01T09:12:50;96213.47;;;13.54;74.69
21980;BME280;11154;48.558;9.234;2023-04-01T09:15:18;96219.84;;;13.53;76.13
21980;BME280;11154;48.558;9.234;2023-04-01T09:17:45;96214.50;;;13.53;77.00
21980;BME280;11154;48.558;9.234;2023-04-01T09:20:02;96212.22;;;13.50;76.32
21980;BME280;11154;48.558;9.234;2023-04-01T09:22:41;96232.56;;;13.51;76.66
21980;BME280;11154;48.558;9.234;2023-04-01T09:25:21;96224.78;;;13.43;76.35
21980;BME280;11154;48.558;9.234;2023-04-01T09:27:29;96229.94;;;13.38;76.48
21980;BME280;11154;48.558;9.234;2023-04-01T09:29:53;96228.69;;;13.40;77.30
21980;BME280;11154;48.558;9.234;2023-04-01T09:32:12;96239.81;;;13.37;75.49
21980;BME280;11154;48.558;9.234;2023-04-01T09:34:27;96233.63;;;13.37;75.59
21980;BME280;11154;48.558;9.234;2023-04-01T09:36:43;96238.38;;;13.35;75.34
21980;BME280;11154;48.558;9.234;2023-04-01T09:38:55;96238.38;;;13.35;76.31
21980;BME280;11154;48.558;9.234;2023-04-01T09:41:01;96244.72;;;13.40;78.85
21980;BME280;11154;48.558;9.234;2023-04-01T09:43:42;96249.22;;;13.46;79.78
21980;BME280;11154;48.558;9.234;2023-04-01T09:48:38;96241.44;;;13.38;77.36
21980;BME280;11154;48.558;9.234;2023-04-01T09:50:52;96257.47;;;13.32;76.63
21980;BME280;11154;48.558;9.234;2023-04-01T09:53:04;96261.16;;;13.37;78.03
21980;BME280;11154;48.558;9.234;2023-04-01T09:58:12;96269.56;;;13.47;80.35
21980;BME280;11154;48.558;9.234;2023-04-01T10:00:32;96253.53;;;13.54;80.84
21980;BME280;11154;48.558;9.234;2023-04-01T10:03:08;96258.44;;;13.57;80.19
21980;BME280;11154;48.558;9.234;2023-04-01T10:10:46;96261.09;;;13.63;79.90
21980;BME280;11154;48.558;9.234;2023-04-01T10:13:05;96264.16;;;13.67;80.32
21980;BME280;11154;48.558;9.234;2023-04-01T10:15:41;96257.59;;;13.69;81.06
21980;BME280;11154;48.558;9.234;2023-04-01T10:20:39;96269.50;;;13.67;81.14
21980;BME280;11154;48.558;9.234;2023-04-01T10:23:07;96257.19;;;13.66;81.82
21980;BME280;11154;48.558;9.234;2023-04-01T10:25:39;96265.19;;;13.66;82.40
21980;BME280;11154;48.558;9.234;2023-04-01T10:33:56;96259.63;;;13.61;82.54
21980;BME280;11154;48.558;9.234;2023-04-01T10:41:37;96265.41;;;13.58;81.91
21980;BME280;11154;48.558;9.234;2023-04-01T10:51:26;96268.50;;;13.55;82.39
21980;BME280;11154;48.558;9.234;2023-04-01T10:54:13;96268.91;;;13.58;83.35
21980;BME280;11154;48.558;9.234;2023-04-01T10:56:47;96267.88;;;13.59;82.21
21980;BME280;11154;48.558;9.234;2023-04-01T11:06:48;96266.19;;;13.77;83.10
21980;BME280;11154;48.558;9.234;2023-04-01T11:12:02;96275.22;;;13.76;82.10
21980;BME280;11154;48.558;9.234;2023-04-01T11:19:43;96285.47;;;13.79;84.25
21980;BME280;11154;48.558;9.234;2023-04-01T11:21:59;96276.41;;;13.80;83.83
21980;BME280;11154;48.558;9.234;2023-04-01T11:24:25;96273.56;;;13.82;83.20
21980;BME280;11154;48.558;9.234;2023-04-01T11:26:43;96268.81;;;13.84;83.88
21980;BME280;11154;48.558;9.234;2023-04-01T11:29:04;96278.25;;;13.86;83.41
21980;BME280;11154;48.558;9.234;2023-04-01T11:33:43;96279.47;;;13.90;83.86
21980;BME280;11154;48.558;9.234;2023-04-01T11:36:07;96271.66;;;13.89;83.25
21980;BME280;11154;48.558;9.234;2023-04-01T11:38:25;96284.84;;;13.84;81.93
21980;BME280;11154;48.558;9.234;2023-04-01T11:40:34;96291.59;;;13.86;82.77
21980;BME280;11154;48.558;9.234;2023-04-01T11:42:41;96291.41;;;13.88;83.30
21980;BME280;11154;48.558;9.234;2023-04-01T11:44:53;96300.41;;;13.93;83.59
21980;BME280;11154;48.558;9.234;2023-04-01T11:47:24;96291.34;;;14.14;81.33
21980;BME280;11154;48.558;9.234;2023-04-01T11:49:44;96297.50;;;14.08;81.67
21980;BME280;11154;48.558;9.234;2023-04-01T11:52:04;96292.97;;;14.02;81.59
21980;BME280;11154;48.558;9.234;2023-04-01T11:54:24;96288.06;;;13.99;80.55
21980;BME280;11154;48.558;9.234;2023-04-01T11:56:44;96285.63;;;13.97;79.04
21980;BME280;11154;48.558;9.234;2023-04-01T12:01:27;96288.88;;;13.99;79.21
21980;BME280;11154;48.558;9.234;2023-04-01T12:06:23;96295.25;;;14.05;79.91
21980;BME280;11154;48.558;9.234;2023-04-01T12:08:38;96291.53;;;14.12;81.57
21980;BME280;11154;48.558;9.234;2023-04-01T12:10:50;96298.13;;;14.10;79.09
21980;BME280;11154;48.558;9.234;2023-04-01T12:12:59;96291.75;;;14.11;79.59
21980;BME280;11154;48.558;9.234;2023-04-01T12:15:16;96298.13;;;14.10;80.13
21980;BME280;11154;48.558;9.234;2023-04-01T12:17:29;96301.63;;;14.10;80.41
21980;BME280;11154;48.558;9.234;2023-04-01T12:19:40;96304.09;;;14.12;80.25
21980;BME280;11154;48.558;9.234;2023-04-01T12:21:45;96312.91;;;14.12;79.96
21980;BME280;11154;48.558;9.234;2023-04-01T12:24:06;96299.13;;;14.15;79.58
21980;BME280;11154;48.558;9.234;2023-04-01T12:26:38;96302.84;;;14.14;79.82
21980;BME280;11154;48.558;9.234;2023-04-01T12:28:46;96309.81;;;14.15;80.53